sensor_id;sensor_type;location;lat;lon;timestamp;temperature;humidity
37896;DHT22;23733;53.254;10.430;2022-11-23T00:01:46;1.50;99.90
37896;DHT22;23733;53.254;10.430;2022-11-23T00:04:12;1.50;99.90
37896;DHT22;23733;53.254;10.430;2022-11-23T00:06:39;1.50;99.90
37896;DHT22;23733;53.254;10.430;2022-11-23T00:09:06;1.50;99.90
37896;DHT22;23733;53.254;10.430;2022-11-23T00:11:33;1.50;99.90
37896;DHT22;23733;53.254;10.430;2022-11-23T00:14:00;1.60;99.90
37896;DHT22;23733;53.254;10.430;2022-11-23T00:16:28;1.60;99.90
37896;DHT22;23733;53.254;10.430;2022-11-23T00:18:59;1.60;99.90
37896;DHT22;23733;53.254;10.430;2022-11-23T00:21:27;1.60;99.90
37896;DHT22;23733;53.254;10.430;2022-11-23T00:23:53;1.60;99.90
37896;DHT22;23733;53.254;10.430;2022-11-23T00:26:19;1.60;99.90
37896;DHT22;23733;53.254;10.430;2022-11-23T00:28:46;1.60;99.90
37896;DHT22;23733;53.254;10.430;2022-11-23T00:31:15;1.60;99.90
37896;DHT22;23733;53.254;10.430;2022-11-23T00:33:41;1.60;99.90
37896;DHT22;23733;53.254;10.430;2022-11-23T00:36:11;1.60;99.90
37896;DHT22;23733;53.254;10.430;2022-11-23T00:38:38;1.70;99.90
37896;DHT22;23733;53.254;10.430;2022-11-23T00:41:06;1.70;99.90
37896;DHT22;23733;53.254;10.430;2022-11-23T00:43:33;1.70;99.90
37896;DHT22;23733;53.254;10.430;2022-11-23T00:46:11;1.70;99.90
37896;DHT22;23733;53.254;10.430;2022-11-23T00:48:37;1.70;99.90
37896;DHT22;23733;53.254;10.430;2022-11-23T00:51:05;1.70;99.90
37896;DHT22;23733;53.254;10.430;2022-11-23T00:53:32;1.70;99.90
37896;DHT22;23733;53.254;10.430;2022-11-23T00:55:58;1.70;99.90
37896;DHT22;23733;53.254;10.430;2022-11-23T00:58:24;1.70;99.90
37896;DHT22;23733;53.254;10.430;2022-11-23T01:00:59;1.70;99.90
37896;DHT22;23733;53.254;10.430;2022-11-23T03:38:34;1.80;99.90
37896;DHT22;23733;53.254;10.430;2022-11-23T06:14:44;2.20;99.90
37896;DHT22;23733;53.254;10.430;2022-11-23T06:51:20;2.80;99.90
37896;DHT22;23733;53.254;10.430;2022-11-23T06:53:46;3.00;99.90
37896;DHT22;23733;53.254;10.430;2022-11-23T06:56:12;3.10;99.90
37896;DHT22;23733;53.254;10.430;2022-11-23T06:58:38;3.10;99.90
37896;DHT22;23733;53.254;10.430;2022-11-23T08:07:04;3.10;99.90
37896;DHT22;23733;53.254;10.430;2022-11-23T08:09:30;3.40;99.90
37896;DHT22;23733;53.254;10.430;2022-11-23T08:11:56;3.40;99.90
37896;DHT22;23733;53.254;10.430;2022-11-23T08:14:22;3.40;99.90
37896;DHT22;23733;53.254;10.430;2022-11-23T08:16:49;3.40;99.90
37896;DHT22;23733;53.254;10.430;2022-11-23T08:19:16;3.40;99.90
37896;DHT22;23733;53.254;10.430;2022-11-23T08:21:43;3.50;99.90
37896;DHT22;23733;53.254;10.430;2022-11-23T08:24:09;3.50;99.90
37896;DHT22;23733;53.254;10.430;2022-11-23T08:26:36;3.50;99.90
37896;DHT22;23733;53.254;10.430;2022-11-23T08:29:02;3.50;99.90
37896;DHT22;23733;53.254;10.430;2022-11-23T08:31:31;3.50;99.90
37896;DHT22;23733;53.254;10.430;2022-11-23T08:33:58;3.60;99.90
37896;DHT22;23733;53.254;10.430;2022-11-23T08:36:24;3.60;99.90
37896;DHT22;23733;53.254;10.430;2022-11-23T08:38:50;3.60;99.90
37896;DHT22;23733;53.254;10.430;2022-11-23T08:41:17;3.60;99.90
37896;DHT22;23733;53.254;10.430;2022-11-23T08:43:46;3.60;99.90
37896;DHT22;23733;53.254;10.430;2022-11-23T08:46:13;3.60;99.90
37896;DHT22;23733;53.254;10.430;2022-11-23T08:48:39;3.60;99.90
37896;DHT22;23733;53.254;10.430;2022-11-23T08:51:05;3.70;99.90
37896;DHT22;23733;53.254;10.430;2022-11-23T08:53:32;3.70;99.90
37896;DHT22;23733;53.254;10.430;2022-11-23T08:56:02;3.70;99.90
37896;DHT22;23733;53.254;10.430;2022-11-23T08:58:29;3.70;99.90
37896;DHT22;23733;53.254;10.430;2022-11-23T09:00:55;3.80;99.90
37896;DHT22;23733;53.254;10.430;2022-11-23T09:03:21;3.80;99.90
37896;DHT22;23733;53.254;10.430;2022-11-23T09:05:47;3.80;99.90
37896;DHT22;23733;53.254;10.430;2022-11-23T09:08:13;3.80;99.90
37896;DHT22;23733;53.254;10.430;2022-11-23T09:10:41;3.80;99.90
37896;DHT22;23733;53.254;10.430;2022-11-23T09:13:07;3.90;99.90
37896;DHT22;23733;53.254;10.430;2022-11-23T09:52:32;4.20;99.90
37896;DHT22;23733;53.254;10.430;2022-11-23T09:55:04;4.30;99.90
37896;DHT22;23733;53.254;10.430;2022-11-23T09:57:33;4.30;99.90
37896;DHT22;23733;53.254;10.430;2022-11-23T15:59:41;5.80;99.90
37896;DHT22;23733;53.254;10.430;2022-11-23T16:02:23;5.70;99.90
37896;DHT22;23733;53.254;10.430;2022-11-23T20:30:33;5.70;99.90
37896;DHT22;23733;53.254;10.430;2022-11-23T20:33:05;4.20;99.90
37896;DHT22;23733;53.254;10.430;2022-11-23T20:35:35;4.20;99.90
37896;DHT22;23733;53.254;10.430;2022-11-23T20:38:02;4.20;99.90
37896;DHT22;23733;53.254;10.430;2022-11-23T20:40:47;4.10;99.90
37896;DHT22;23733;53.254;10.430;2022-11-23T20:43:16;4.10;99.90
37896;DHT22;23733;53.254;10.430;2022-11-23T20:45:48;4.10;99.90
37896;DHT22;23733;53.254;10.430;2022-11-23T20:48:24;4.10;99.90
37896;DHT22;23733;53.254;10.430;2022-11-23T20:50:58;4.10;99.90
37896;DHT22;23733;53.254;10.430;2022-11-23T20:53:34;4.10;99.90
37896;DHT22;23733;53.254;10.430;2022-11-23T20:56:09;4.10;99.90
37896;DHT22;23733;53.254;10.430;2022-11-23T20:58:36;4.00;99.90
37896;DHT22;23733;53.254;10.430;2022-11-23T21:01:11;4.10;99.90
37896;DHT22;23733;53.254;10.430;2022-11-23T21:03:39;4.00;99.90
37896;DHT22;23733;53.254;10.430;2022-11-23T21:06:08;4.10;99.90
37896;DHT22;23733;53.254;10.430;2022-11-23T21:08:34;4.00;99.90
37896;DHT22;23733;53.254;10.430;2022-11-23T21:11:06;4.10;99.90
37896;DHT22;23733;53.254;10.430;2022-11-23T21:13:51;4.10;99.90
37896;DHT22;23733;53.254;10.430;2022-11-23T21:16:41;4.00;99.90
37896;DHT22;23733;53.254;10.430;2022-11-23T21:19:11;4.00;99.90
37896;DHT22;23733;53.254;10.430;2022-11-23T21:21:38;4.00;99.90
37896;DHT22;23733;53.254;10.430;2022-11-23T21:24:05;4.00;99.90
37896;DHT22;23733;53.254;10.430;2022-11-23T21:26:32;4.00;99.90
37896;DHT22;23733;53.254;10.430;2022-11-23T21:29:01;4.00;99.90
37896;DHT22;23733;53.254;10.430;2022-11-23T21:31:29;4.00;99.90
37896;DHT22;23733;53.254;10.430;2022-11-23T21:33:58;4.00;99.90
37896;DHT22;23733;53.254;10.430;2022-11-23T21:36:34;4.00;99.90
37896;DHT22;23733;53.254;10.430;2022-11-23T21:39:08;3.90;99.90
37896;DHT22;23733;53.254;10.430;2022-11-23T21:41:35;3.90;99.90
37896;DHT22;23733;53.254;10.430;2022-11-23T21:44:03;3.90;99.90
37896;DHT22;23733;53.254;10.430;2022-11-23T21:46:29;3.90;99.90
37896;DHT22;23733;53.254;10.430;2022-11-23T21:49:01;3.90;99.90
37896;DHT22;23733;53.254;10.430;2022-11-23T21:51:29;3.90;99.90
37896;DHT22;23733;53.254;10.430;2022-11-23T21:54:00;3.90;99.90
37896;DHT22;23733;53.254;10.430;2022-11-23T21:56:27;3.90;99.90
37896;DHT22;23733;53.254;10.430;2022-11-23T21:58:56;3.90;99.90
37896;DHT22;23733;53.254;10.430;2022-11-23T22:01:29;3.90;99.90
37896;DHT22;23733;53.254;10.430;2022-11-23T22:04:00;3.90;99.90
37896;DHT22;23733;53.254;10.430;2022-11-23T22:06:26;3.90;99.90
37896;DHT22;23733;53.254;10.430;2022-11-23T22:08:54;3.80;99.90
37896;DHT22;23733;53.254;10.430;2022-11-23T22:11:25;3.80;99.90
37896;DHT22;23733;53.254;10.430;2022-11-23T22:14:03;3.80;99.90
37896;DHT22;23733;53.254;10.430;2022-11-23T22:16:32;3.80;99.90
37896;DHT22;23733;53.254;10.430;2022-11-23T22:18:59;3.80;99.90
37896;DHT22;23733;53.254;10.430;2022-11-23T22:21:27;3.80;99.90
37896;DHT22;23733;53.254;10.430;2022-11-23T22:23:54;3.80;99.90
37896;DHT22;23733;53.254;10.430;2022-11-23T22:26:20;3.80;99.90
37896;DHT22;23733;53.254;10.430;2022-11-23T22:28:48;3.80;99.90
37896;DHT22;23733;53.254;10.430;2022-11-23T22:31:17;3.80;99.90
37896;DHT22;23733;53.254;10.430;2022-11-23T22:33:43;3.80;99.90
37896;DHT22;23733;53.254;10.430;2022-11-23T22:36:18;3.70;99.90
37896;DHT22;23733;53.254;10.430;2022-11-23T22:38:45;3.70;99.90
37896;DHT22;23733;53.254;10.430;2022-11-23T22:41:13;3.70;99.90
37896;DHT22;23733;53.254;10.430;2022-11-23T22:43:39;3.80;99.90
